sensor_id;sensor_type;location;lat;lon;timestamp;temperature;humidity
14014;DHT22;49110;52.584;13.408;2022-12-29T00:00:26;9.40;99.90
14014;DHT22;49110;52.584;13.408;2022-12-29T00:01:26;9.40;99.90
14014;DHT22;49110;52.584;13.408;2022-12-29T00:02:27;9.40;99.90
14014;DHT22;49110;52.584;13.408;2022-12-29T00:03:27;9.40;99.90
14014;DHT22;49110;52.584;13.408;2022-12-29T00:04:28;9.40;99.90
14014;DHT22;49110;52.584;13.408;2022-12-29T00:05:28;9.50;99.90
14014;DHT22;49110;52.584;13.408;2022-12-29T00:06:29;9.50;99.90
14014;DHT22;49110;52.584;13.408;2022-12-29T00:07:30;9.50;99.90
14014;DHT22;49110;52.584;13.408;2022-12-29T00:08:30;9.50;99.90
14014;DHT22;49110;52.584;13.408;2022-12-29T00:09:39;9.50;99.90
14014;DHT22;49110;52.584;13.408;2022-12-29T00:10:40;9.50;99.90
14014;DHT22;49110;52.584;13.408;2022-12-29T00:11:41;9.50;99.90
14014;DHT22;49110;52.584;13.408;2022-12-29T00:12:42;9.50;99.90
14014;DHT22;49110;52.584;13.408;2022-12-29T00:14:01;9.50;99.90
14014;DHT22;49110;52.584;13.408;2022-12-29T00:15:20;9.50;99.90
14014;DHT22;49110;52.584;13.408;2022-12-29T00:16:42;9.50;99.90
14014;DHT22;49110;52.584;13.408;2022-12-29T00:17:43;9.50;99.90
14014;DHT22;49110;52.584;13.408;2022-12-29T00:18:43;9.50;99.90
14014;DHT22;49110;52.584;13.408;2022-12-29T00:19:44;9.60;99.90
14014;DHT22;49110;52.584;13.408;2022-12-29T00:21:03;9.50;99.90
14014;DHT22;49110;52.584;13.408;2022-12-29T00:22:22;9.60;99.90
14014;DHT22;49110;52.584;13.408;2022-12-29T00:23:41;9.60;99.90
14014;DHT22;49110;52.584;13.408;2022-12-29T00:25:00;9.50;99.90
14014;DHT22;49110;52.584;13.408;2022-12-29T00:26:19;9.50;99.90
14014;DHT22;49110;52.584;13.408;2022-12-29T00:27:38;9.50;99.90
14014;DHT22;49110;52.584;13.408;2022-12-29T00:28:57;9.50;99.90
14014;DHT22;49110;52.584;13.408;2022-12-29T00:30:27;9.50;99.90
14014;DHT22;49110;52.584;13.408;2022-12-29T00:31:46;9.50;99.90
14014;DHT22;49110;52.584;13.408;2022-12-29T00:33:18;9.50;99.90
14014;DHT22;49110;52.584;13.408;2022-12-29T00:34:38;9.50;99.90
14014;DHT22;49110;52.584;13.408;2022-12-29T00:36:09;9.50;99.90
14014;DHT22;49110;52.584;13.408;2022-12-29T00:37:12;9.50;99.90
14014;DHT22;49110;52.584;13.408;2022-12-29T00:38:13;9.50;99.90
14014;DHT22;49110;52.584;13.408;2022-12-29T00:39:32;9.50;99.90
14014;DHT22;49110;52.584;13.408;2022-12-29T00:40:51;9.50;99.90
14014;DHT22;49110;52.584;13.408;2022-12-29T00:42:16;9.40;99.90
14014;DHT22;49110;52.584;13.408;2022-12-29T00:43:39;9.40;99.90
14014;DHT22;49110;52.584;13.408;2022-12-29T00:44:59;9.40;99.90
14014;DHT22;49110;52.584;13.408;2022-12-29T00:45:59;9.50;99.90
14014;DHT22;49110;52.584;13.408;2022-12-29T00:47:00;9.50;99.90
14014;DHT22;49110;52.584;13.408;2022-12-29T00:48:04;9.50;99.90
14014;DHT22;49110;52.584;13.408;2022-12-29T00:49:06;9.50;99.90
14014;DHT22;49110;52.584;13.408;2022-12-29T00:50:26;9.50;99.90
14014;DHT22;49110;52.584;13.408;2022-12-29T00:51:26;9.50;99.90
14014;DHT22;49110;52.584;13.408;2022-12-29T00:52:27;9.40;99.90
14014;DHT22;49110;52.584;13.408;2022-12-29T00:53:27;9.40;99.90
14014;DHT22;49110;52.584;13.408;2022-12-29T00:54:29;9.50;99.90
14014;DHT22;49110;52.584;13.408;2022-12-29T00:55:30;9.50;99.90
14014;DHT22;49110;52.584;13.408;2022-12-29T00:56:31;9.50;99.90
14014;DHT22;49110;52.584;13.408;2022-12-29T00:57:31;9.50;99.90
14014;DHT22;49110;52.584;13.408;2022-12-29T00:58:31;9.50;99.90
14014;DHT22;49110;52.584;13.408;2022-12-29T00:59:35;9.40;99.90
14014;DHT22;49110;52.584;13.408;2022-12-29T01:00:35;9.50;99.90
14014;DHT22;49110;52.584;13.408;2022-12-29T01:01:37;9.50;99.90
14014;DHT22;49110;52.584;13.408;2022-12-29T01:02:37;9.50;99.90
14014;DHT22;49110;52.584;13.408;2022-12-29T01:03:38;9.50;99.90
14014;DHT22;49110;52.584;13.408;2022-12-29T01:04:38;9.50;99.90
14014;DHT22;49110;52.584;13.408;2022-12-29T01:05:39;9.50;99.90
14014;DHT22;49110;52.584;13.408;2022-12-29T01:06:40;9.50;99.90
14014;DHT22;49110;52.584;13.408;2022-12-29T01:07:41;9.50;99.90
14014;DHT22;49110;52.584;13.408;2022-12-29T01:08:41;9.50;99.90
14014;DHT22;49110;52.584;13.408;2022-12-29T01:09:42;9.50;99.90
14014;DHT22;49110;52.584;13.408;2022-12-29T01:11:09;9.50;99.90
14014;DHT22;49110;52.584;13.408;2022-12-29T01:12:10;9.60;99.90
14014;DHT22;49110;52.584;13.408;2022-12-29T01:13:11;9.50;99.90
14014;DHT22;49110;52.584;13.408;2022-12-29T01:14:11;9.60;99.90
14014;DHT22;49110;52.584;13.408;2022-12-29T01:15:13;9.60;99.90
14014;DHT22;49110;52.584;13.408;2022-12-29T01:16:14;9.50;99.90
14014;DHT22;49110;52.584;13.408;2022-12-29T01:17:14;9.60;99.90
14014;DHT22;49110;52.584;13.408;2022-12-29T01:18:15;9.50;99.90
14014;DHT22;49110;52.584;13.408;2022-12-29T01:19:16;9.60;99.90
14014;DHT22;49110;52.584;13.408;2022-12-29T01:20:17;9.60;99.90
14014;DHT22;49110;52.584;13.408;2022-12-29T01:21:17;9.60;99.90
14014;DHT22;49110;52.584;13.408;2022-12-29T01:22:18;9.60;99.90
14014;DHT22;49110;52.584;13.408;2022-12-29T01:23:18;9.60;99.90
14014;DHT22;49110;52.584;13.408;2022-12-29T01:24:19;9.60;99.90
14014;DHT22;49110;52.584;13.408;2022-12-29T01:25:20;9.60;99.90
14014;DHT22;49110;52.584;13.408;2022-12-29T01:26:21;9.60;99.90
14014;DHT22;49110;52.584;13.408;2022-12-29T01:27:21;9.60;99.90
14014;DHT22;49110;52.584;13.408;2022-12-29T01:28:22;9.60;99.90
14014;DHT22;49110;52.584;13.408;2022-12-29T01:29:22;9.70;99.90
14014;DHT22;49110;52.584;13.408;2022-12-29T01:30:23;9.70;99.90
14014;DHT22;49110;52.584;13.408;2022-12-29T01:31:23;9.60;99.90
14014;DHT22;49110;52.584;13.408;2022-12-29T01:32:24;9.60;99.90
14014;DHT22;49110;52.584;13.408;2022-12-29T01:33:24;9.70;99.90
14014;DHT22;49110;52.584;13.408;2022-12-29T01:34:25;9.70;99.90
14014;DHT22;49110;52.584;13.408;2022-12-29T01:35:25;9.70;99.90
14014;DHT22;49110;52.584;13.408;2022-12-29T01:36:26;9.70;99.90
14014;DHT22;49110;52.584;13.408;2022-12-29T01:37:26;9.70;99.90
14014;DHT22;49110;52.584;13.408;2022-12-29T01:38:27;9.70;99.90
14014;DHT22;49110;52.584;13.408;2022-12-29T01:39:27;9.70;99.90
14014;DHT22;49110;52.584;13.408;2022-12-29T01:40:28;9.70;99.90
14014;DHT22;49110;52.584;13.408;2022-12-29T01:41:29;9.70;99.90
14014;DHT22;49110;52.584;13.408;2022-12-29T01:42:29;9.70;99.90
14014;DHT22;49110;52.584;13.408;2022-12-29T01:43:42;9.70;99.90
14014;DHT22;49110;52.584;13.408;2022-12-29T01:44:57;9.70;99.90
14014;DHT22;49110;52.584;13.408;2022-12-29T01:45:58;9.70;99.90
14014;DHT22;49110;52.584;13.408;2022-12-29T01:46:59;9.70;99.90
14014;DHT22;49110;52.584;13.408;2022-12-29T01:48:02;9.70;99.90
14014;DHT22;49110;52.584;13.408;2022-12-29T01:49:18;9.70;99.90
14014;DHT22;49110;52.584;13.408;2022-12-29T01:50:35;9.70;99.90
14014;DHT22;49110;52.584;13.408;2022-12-29T01:51:57;9.70;99.90
14014;DHT22;49110;52.584;13.408;2022-12-29T01:53:02;9.70;99.90
14014;DHT22;49110;52.584;13.408;2022-12-29T01:54:09;9.80;99.90
14014;DHT22;49110;52.584;13.408;2022-12-29T01:55:11;9.70;99.90
14014;DHT22;49110;52.584;13.408;2022-12-29T01:56:15;9.70;99.90
14014;DHT22;49110;52.584;13.408;2022-12-29T01:57:20;9.70;99.90
14014;DHT22;49110;52.584;13.408;2022-12-29T01:58:24;9.70;99.90
14014;DHT22;49110;52.584;13.408;2022-12-29T01:59:31;9.70;99.90
14014;DHT22;49110;52.584;13.408;2022-12-29T02:00:33;9.70;99.90
14014;DHT22;49110;52.584;13.408;2022-12-29T02:01:33;9.70;99.90
14014;DHT22;49110;52.584;13.408;2022-12-29T02:02:34;9.70;99.90
14014;DHT22;49110;52.584;13.408;2022-12-29T02:03:35;9.70;99.90
14014;DHT22;49110;52.584;13.408;2022-12-29T02:04:40;9.70;99.90
14014;DHT22;49110;52.584;13.408;2022-12-29T02:06:00;9.70;99.90
14014;DHT22;49110;52.584;13.408;2022-12-29T02:07:16;9.70;99.90
14014;DHT22;49110;52.584;13.408;2022-12-29T02:08:17;9.60;99.90
14014;DHT22;49110;52.584;13.408;2022-12-29T02:09:18;9.70;99.90
14014;DHT22;49110;52.584;13.408;2022-12-29T02:10:21;9.70;99.90
14014;DHT22;49110;52.584;13.408;2022-12-29T02:11:24;9.70;99.90
14014;DHT22;49110;52.584;13.408;2022-12-29T02:12:26;9.70;99.90
14014;DHT22;49110;52.584;13.408;2022-12-29T02:13:27;9.70;99.90
14014;DHT22;49110;52.584;13.408;2022-12-29T02:14:28;9.70;99.90
14014;DHT22;49110;52.584;13.408;2022-12-29T02:18:30;9.80;99.90
14014;DHT22;49110;52.584;13.408;2022-12-29T02:20:11;9.80;99.90
14014;DHT22;49110;52.584;13.408;2022-12-29T02:26:53;9.70;99.90
14014;DHT22;49110;52.584;13.408;2022-12-29T02:28:24;9.70;99.90
14014;DHT22;49110;52.584;13.408;2022-12-29T02:32:31;9.70;99.90
14014;DHT22;49110;52.584;13.408;2022-12-29T02:33:39;9.70;99.90
14014;DHT22;49110;52.584;13.408;2022-12-29T02:35:05;9.70;99.90
14014;DHT22;49110;52.584;13.408;2022-12-29T02:36:27;9.70;99.90
14014;DHT22;49110;52.584;13.408;2022-12-29T02:37:49;9.70;99.90
14014;DHT22;49110;52.584;13.408;2022-12-29T02:39:11;9.70;99.90
14014;DHT22;49110;52.584;13.408;2022-12-29T02:40:23;9.60;99.90
14014;DHT22;49110;52.584;13.408;2022-12-29T02:41:40;9.60;99.90
14014;DHT22;49110;52.584;13.408;2022-12-29T02:43:03;9.70;99.90
14014;DHT22;49110;52.584;13.408;2022-12-29T02:44:12;9.60;99.90
14014;DHT22;49110;52.584;13.408;2022-12-29T02:46:53;9.60;99.90
14014;DHT22;49110;52.584;13.408;2022-12-29T02:48:20;9.60;99.90
14014;DHT22;49110;52.584;13.408;2022-12-29T02:49:33;9.70;99.90
14014;DHT22;49110;52.584;13.408;2022-12-29T02:50:57;9.70;99.90
14014;DHT22;49110;52.584;13.408;2022-12-29T02:52:26;9.70;99.90
14014;DHT22;49110;52.584;13.408;2022-12-29T02:53:30;9.70;99.90
14014;DHT22;49110;52.584;13.408;2022-12-29T02:54:53;9.80;99.90
14014;DHT22;49110;52.584;13.408;2022-12-29T02:55:54;9.80;99.90
14014;DHT22;49110;52.584;13.408;2022-12-29T02:56:55;9.80;99.90
14014;DHT22;49110;52.584;13.408;2022-12-29T02:59:17;9.80;99.90
14014;DHT22;49110;52.584;13.408;2022-12-29T03:00:17;9.80;99.90
14014;DHT22;49110;52.584;13.408;2022-12-29T03:01:27;9.80;99.90
14014;DHT22;49110;52.584;13.408;2022-12-29T03:02:46;9.80;99.90
14014;DHT22;49110;52.584;13.408;2022-12-29T03:05:35;9.90;99.90
14014;DHT22;49110;52.584;13.408;2022-12-29T03:06:58;9.90;99.90
14014;DHT22;49110;52.584;13.408;2022-12-29T03:09:30;9.90;99.90
14014;DHT22;49110;52.584;13.408;2022-12-29T03:10:48;9.90;99.90
14014;DHT22;49110;52.584;13.408;2022-12-29T03:12:10;9.90;99.90
14014;DHT22;49110;52.584;13.408;2022-12-29T03:15:02;9.90;99.90
14014;DHT22;49110;52.584;13.408;2022-12-29T03:16:33;9.90;99.90
14014;DHT22;49110;52.584;13.408;2022-12-29T03:19:02;9.90;99.90
14014;DHT22;49110;52.584;13.408;2022-12-29T03:20:08;10.00;99.90
14014;DHT22;49110;52.584;13.408;2022-12-29T03:21:32;10.00;99.90
14014;DHT22;49110;52.584;13.408;2022-12-29T03:22:58;10.00;99.90
14014;DHT22;49110;52.584;13.408;2022-12-29T03:24:00;10.00;99.90
14014;DHT22;49110;52.584;13.408;2022-12-29T03:25:10;10.00;99.90
14014;DHT22;49110;52.584;13.408;2022-12-29T03:26:11;10.00;99.90
14014;DHT22;49110;52.584;13.408;2022-12-29T03:27:23;10.00;99.90
14014;DHT22;49110;52.584;13.408;2022-12-29T03:28:53;10.10;99.90
14014;DHT22;49110;52.584;13.408;2022-12-29T03:29:58;10.20;99.90
14014;DHT22;49110;52.584;13.408;2022-12-29T03:31:00;10.10;99.90
14014;DHT22;49110;52.584;13.408;2022-12-29T03:32:03;10.10;99.90
14014;DHT22;49110;52.584;13.408;2022-12-29T03:33:09;10.10;99.90
14014;DHT22;49110;52.584;13.408;2022-12-29T03:34:11;10.10;99.90
14014;DHT22;49110;52.584;13.408;2022-12-29T03:35:16;10.10;99.90
14014;DHT22;49110;52.584;13.408;2022-12-29T03:36:23;10.20;99.90
14014;DHT22;49110;52.584;13.408;2022-12-29T03:37:31;10.10;99.90
14014;DHT22;49110;52.584;13.408;2022-12-29T03:38:48;10.20;99.90
14014;DHT22;49110;52.584;13.408;2022-12-29T03:39:51;10.20;99.90
14014;DHT22;49110;52.584;13.408;2022-12-29T03:40:56;10.20;99.90
14014;DHT22;49110;52.584;13.408;2022-12-29T03:42:01;10.20;99.90
14014;DHT22;49110;52.584;13.408;2022-12-29T03:43:03;10.20;99.90
14014;DHT22;49110;52.584;13.408;2022-12-29T03:44:06;10.30;99.90
14014;DHT22;49110;52.584;13.408;2022-12-29T03:45:07;10.30;99.90
14014;DHT22;49110;52.584;13.408;2022-12-29T03:46:09;10.20;99.90
14014;DHT22;49110;52.584;13.408;2022-12-29T03:47:13;10.20;99.90
14014;DHT22;49110;52.584;13.408;2022-12-29T03:48:14;10.20;99.90
14014;DHT22;49110;52.584;13.408;2022-12-29T03:49:15;10.20;99.90
14014;DHT22;49110;52.584;13.408;2022-12-29T03:50:15;10.20;99.90
14014;DHT22;49110;52.584;13.408;2022-12-29T03:51:16;10.20;99.90
14014;DHT22;49110;52.584;13.408;2022-12-29T03:52:16;10.20;99.90
14014;DHT22;49110;52.584;13.408;2022-12-29T03:53:17;10.30;99.90
14014;DHT22;49110;52.584;13.408;2022-12-29T03:54:18;10.30;99.90
14014;DHT22;49110;52.584;13.408;2022-12-29T03:55:18;10.30;99.90
14014;DHT22;49110;52.584;13.408;2022-12-29T03:56:19;10.30;99.90
14014;DHT22;49110;52.584;13.408;2022-12-29T03:57:19;10.30;99.90
14014;DHT22;49110;52.584;13.408;2022-12-29T03:58:20;10.30;99.90
14014;DHT22;49110;52.584;13.408;2022-12-29T03:59:20;10.30;99.90
14014;DHT22;49110;52.584;13.408;2022-12-29T04:00:21;10.30;99.90
14014;DHT22;49110;52.584;13.408;2022-12-29T04:01:21;10.40;99.90
14014;DHT22;49110;52.584;13.408;2022-12-29T04:02:21;10.30;99.90
14014;DHT22;49110;52.584;13.408;2022-12-29T04:03:22;10.40;99.90
14014;DHT22;49110;52.584;13.408;2022-12-29T04:04:22;10.40;99.90
14014;DHT22;49110;52.584;13.408;2022-12-29T04:05:23;10.40;99.90
14014;DHT22;49110;52.584;13.408;2022-12-29T04:06:23;10.40;99.90
14014;DHT22;49110;52.584;13.408;2022-12-29T04:07:24;10.40;99.90
14014;DHT22;49110;52.584;13.408;2022-12-29T04:08:24;10.40;99.90
14014;DHT22;49110;52.584;13.408;2022-12-29T04:09:25;10.40;99.90
14014;DHT22;49110;52.584;13.408;2022-12-29T04:10:25;10.40;99.90
14014;DHT22;49110;52.584;13.408;2022-12-29T04:11:26;10.30;99.90
14014;DHT22;49110;52.584;13.408;2022-12-29T04:12:26;10.40;99.90
14014;DHT22;49110;52.584;13.408;2022-12-29T04:13:27;10.40;99.90
14014;DHT22;49110;52.584;13.408;2022-12-29T04:14:27;10.40;99.90
14014;DHT22;49110;52.584;13.408;2022-12-29T04:15:28;10.50;99.90
14014;DHT22;49110;52.584;13.408;2022-12-29T04:16:28;10.40;99.90
14014;DHT22;49110;52.584;13.408;2022-12-29T04:17:29;10.40;99.90
14014;DHT22;49110;52.584;13.408;2022-12-29T04:18:29;10.50;99.90
14014;DHT22;49110;52.584;13.408;2022-12-29T04:19:30;10.50;99.90
14014;DHT22;49110;52.584;13.408;2022-12-29T04:20:30;10.50;99.90
14014;DHT22;49110;52.584;13.408;2022-12-29T04:21:49;10.50;99.90
14014;DHT22;49110;52.584;13.408;2022-12-29T04:23:00;10.50;99.90
14014;DHT22;49110;52.584;13.408;2022-12-29T04:24:00;10.50;99.90
14014;DHT22;49110;52.584;13.408;2022-12-29T04:25:01;10.50;99.90
14014;DHT22;49110;52.584;13.408;2022-12-29T04:26:02;10.50;99.90
14014;DHT22;49110;52.584;13.408;2022-12-29T04:27:03;10.50;99.90
14014;DHT22;49110;52.584;13.408;2022-12-29T04:28:04;10.50;99.90
14014;DHT22;49110;52.584;13.408;2022-12-29T04:29:05;10.50;99.90
14014;DHT22;49110;52.584;13.408;2022-12-29T04:30:06;10.50;99.90
14014;DHT22;49110;52.584;13.408;2022-12-29T04:31:07;10.50;99.90
14014;DHT22;49110;52.584;13.408;2022-12-29T04:32:07;10.50;99.90
14014;DHT22;49110;52.584;13.408;2022-12-29T04:33:08;10.50;99.90
14014;DHT22;49110;52.584;13.408;2022-12-29T04:34:08;10.50;99.90
14014;DHT22;49110;52.584;13.408;2022-12-29T04:35:09;10.60;99.90
14014;DHT22;49110;52.584;13.408;2022-12-29T04:36:09;10.50;99.90
14014;DHT22;49110;52.584;13.408;2022-12-29T04:37:10;10.50;99.90
14014;DHT22;49110;52.584;13.408;2022-12-29T04:38:10;10.50;99.90
14014;DHT22;49110;52.584;13.408;2022-12-29T04:39:11;10.50;99.90
14014;DHT22;49110;52.584;13.408;2022-12-29T04:40:12;10.50;99.90
14014;DHT22;49110;52.584;13.408;2022-12-29T04:41:12;10.50;99.90
14014;DHT22;49110;52.584;13.408;2022-12-29T04:42:12;10.50;99.90
14014;DHT22;49110;52.584;13.408;2022-12-29T04:43:13;10.50;99.90
14014;DHT22;49110;52.584;13.408;2022-12-29T04:44:14;10.50;99.90
14014;DHT22;49110;52.584;13.408;2022-12-29T04:45:14;10.40;99.90
14014;DHT22;49110;52.584;13.408;2022-12-29T04:46:15;10.50;99.90
14014;DHT22;49110;52.584;13.408;2022-12-29T04:47:15;10.50;99.90
14014;DHT22;49110;52.584;13.408;2022-12-29T04:48:16;10.40;99.90
14014;DHT22;49110;52.584;13.408;2022-12-29T04:49:16;10.50;99.90
14014;DHT22;49110;52.584;13.408;2022-12-29T04:50:17;10.40;99.90
14014;DHT22;49110;52.584;13.408;2022-12-29T04:51:17;10.50;99.90
14014;DHT22;49110;52.584;13.408;2022-12-29T04:52:17;10.50;99.90
14014;DHT22;49110;52.584;13.408;2022-12-29T04:53:18;10.40;99.90
14014;DHT22;49110;52.584;13.408;2022-12-29T04:54:18;10.40;99.90
14014;DHT22;49110;52.584;13.408;2022-12-29T04:55:19;10.40;99.90
14014;DHT22;49110;52.584;13.408;2022-12-29T04:56:19;10.40;99.90
14014;DHT22;49110;52.584;13.408;2022-12-29T04:57:20;10.40;99.90
14014;DHT22;49110;52.584;13.408;2022-12-29T04:58:21;10.40;99.90
14014;DHT22;49110;52.584;13.408;2022-12-29T04:59:22;10.40;99.90
14014;DHT22;49110;52.584;13.408;2022-12-29T05:00:22;10.40;99.90
14014;DHT22;49110;52.584;13.408;2022-12-29T05:01:23;10.50;99.90
14014;DHT22;49110;52.584;13.408;2022-12-29T05:02:23;10.50;99.90
14014;DHT22;49110;52.584;13.408;2022-12-29T05:03:23;10.50;99.90
14014;DHT22;49110;52.584;13.408;2022-12-29T05:04:24;10.50;99.90
14014;DHT22;49110;52.584;13.408;2022-12-29T05:05:25;10.50;99.90
14014;DHT22;49110;52.584;13.408;2022-12-29T05:06:25;10.50;99.90
14014;DHT22;49110;52.584;13.408;2022-12-29T05:07:26;10.50;99.90
14014;DHT22;49110;52.584;13.408;2022-12-29T05:08:26;10.50;99.90
14014;DHT22;49110;52.584;13.408;2022-12-29T05:09:27;10.50;99.90
14014;DHT22;49110;52.584;13.408;2022-12-29T05:10:27;10.50;99.90
14014;DHT22;49110;52.584;13.408;2022-12-29T05:11:28;10.60;99.90
14014;DHT22;49110;52.584;13.408;2022-12-29T05:12:35;10.50;99.90
14014;DHT22;49110;52.584;13.408;2022-12-29T05:13:35;10.50;99.90
14014;DHT22;49110;52.584;13.408;2022-12-29T05:14:36;10.50;99.90
14014;DHT22;49110;52.584;13.408;2022-12-29T05:15:36;10.50;99.90
14014;DHT22;49110;52.584;13.408;2022-12-29T05:16:37;10.50;99.90
14014;DHT22;49110;52.584;13.408;2022-12-29T05:17:37;10.50;99.90
14014;DHT22;49110;52.584;13.408;2022-12-29T05:18:38;10.50;99.90
14014;DHT22;49110;52.584;13.408;2022-12-29T05:19:38;10.50;99.90
14014;DHT22;49110;52.584;13.408;2022-12-29T05:20:39;10.60;99.90
14014;DHT22;49110;52.584;13.408;2022-12-29T05:21:39;10.50;99.90
14014;DHT22;49110;52.584;13.408;2022-12-29T05:22:40;10.50;99.90
14014;DHT22;49110;52.584;13.408;2022-12-29T05:23:40;10.50;99.90
14014;DHT22;49110;52.584;13.408;2022-12-29T05:24:40;10.50;99.90
14014;DHT22;49110;52.584;13.408;2022-12-29T05:25:42;10.40;99.90
14014;DHT22;49110;52.584;13.408;2022-12-29T05:26:43;10.50;99.90
14014;DHT22;49110;52.584;13.408;2022-12-29T05:27:43;10.50;99.90
14014;DHT22;49110;52.584;13.408;2022-12-29T05:28:44;10.50;99.90
14014;DHT22;49110;52.584;13.408;2022-12-29T05:29:44;10.60;99.90
14014;DHT22;49110;52.584;13.408;2022-12-29T05:30:48;10.60;99.90
14014;DHT22;49110;52.584;13.408;2022-12-29T05:31:49;10.60;99.90
14014;DHT22;49110;52.584;13.408;2022-12-29T05:32:50;10.60;99.90
14014;DHT22;49110;52.584;13.408;2022-12-29T05:33:50;10.60;99.90
14014;DHT22;49110;52.584;13.408;2022-12-29T05:34:50;10.60;99.90
14014;DHT22;49110;52.584;13.408;2022-12-29T05:35:51;10.60;99.90
14014;DHT22;49110;52.584;13.408;2022-12-29T05:36:51;10.60;99.90
14014;DHT22;49110;52.584;13.408;2022-12-29T05:37:52;10.60;99.90
14014;DHT22;49110;52.584;13.408;2022-12-29T05:38:52;10.60;99.90
14014;DHT22;49110;52.584;13.408;2022-12-29T05:39:53;10.60;99.90
14014;DHT22;49110;52.584;13.408;2022-12-29T05:40:53;10.70;99.90
14014;DHT22;49110;52.584;13.408;2022-12-29T05:41:54;10.70;99.90
14014;DHT22;49110;52.584;13.408;2022-12-29T05:42:54;10.70;99.90
14014;DHT22;49110;52.584;13.408;2022-12-29T05:43:55;10.70;99.90
14014;DHT22;49110;52.584;13.408;2022-12-29T05:44:55;10.70;99.90
14014;DHT22;49110;52.584;13.408;2022-12-29T05:45:56;10.70;99.90
14014;DHT22;49110;52.584;13.408;2022-12-29T05:46:57;10.70;99.90
14014;DHT22;49110;52.584;13.408;2022-12-29T05:47:58;10.70;99.90
14014;DHT22;49110;52.584;13.408;2022-12-29T05:48:58;10.70;99.90
14014;DHT22;49110;52.584;13.408;2022-12-29T05:49:58;10.70;99.90
14014;DHT22;49110;52.584;13.408;2022-12-29T05:50:59;10.80;99.90
14014;DHT22;49110;52.584;13.408;2022-12-29T05:51:59;10.80;99.90
14014;DHT22;49110;52.584;13.408;2022-12-29T05:53:00;10.80;99.90
14014;DHT22;49110;52.584;13.408;2022-12-29T05:54:00;10.80;99.90
14014;DHT22;49110;52.584;13.408;2022-12-29T05:55:01;10.80;99.90
14014;DHT22;49110;52.584;13.408;2022-12-29T05:56:01;10.80;99.90
14014;DHT22;49110;52.584;13.408;2022-12-29T05:57:02;10.80;99.90
14014;DHT22;49110;52.584;13.408;2022-12-29T05:58:02;10.80;99.90
14014;DHT22;49110;52.584;13.408;2022-12-29T05:59:03;10.80;99.90
14014;DHT22;49110;52.584;13.408;2022-12-29T06:00:04;10.80;99.90
14014;DHT22;49110;52.584;13.408;2022-12-29T06:01:05;10.80;99.90
14014;DHT22;49110;52.584;13.408;2022-12-29T06:02:06;10.90;99.90
14014;DHT22;49110;52.584;13.408;2022-12-29T06:03:06;10.80;99.90
14014;DHT22;49110;52.584;13.408;2022-12-29T06:04:06;10.90;99.90
14014;DHT22;49110;52.584;13.408;2022-12-29T06:05:07;10.90;99.90
14014;DHT22;49110;52.584;13.408;2022-12-29T06:06:08;10.90;99.90
14014;DHT22;49110;52.584;13.408;2022-12-29T06:07:08;10.90;99.90
14014;DHT22;49110;52.584;13.408;2022-12-29T06:08:09;10.90;99.90
14014;DHT22;49110;52.584;13.408;2022-12-29T06:09:10;10.90;99.90
14014;DHT22;49110;52.584;13.408;2022-12-29T06:10:11;10.90;99.90
14014;DHT22;49110;52.584;13.408;2022-12-29T06:11:12;10.90;99.90
14014;DHT22;49110;52.584;13.408;2022-12-29T06:12:12;10.90;99.90
14014;DHT22;49110;52.584;13.408;2022-12-29T06:13:13;10.90;99.90
14014;DHT22;49110;52.584;13.408;2022-12-29T06:14:13;10.90;99.90
14014;DHT22;49110;52.584;13.408;2022-12-29T06:15:14;11.00;99.90
14014;DHT22;49110;52.584;13.408;2022-12-29T06:16:14;10.90;99.90
14014;DHT22;49110;52.584;13.408;2022-12-29T06:17:15;10.90;99.90
14014;DHT22;49110;52.584;13.408;2022-12-29T06:18:16;11.00;99.90
14014;DHT22;49110;52.584;13.408;2022-12-29T06:19:16;11.00;99.90
14014;DHT22;49110;52.584;13.408;2022-12-29T06:20:17;11.00;99.90
14014;DHT22;49110;52.584;13.408;2022-12-29T06:21:17;11.00;99.90
14014;DHT22;49110;52.584;13.408;2022-12-29T06:22:18;11.00;99.90
14014;DHT22;49110;52.584;13.408;2022-12-29T06:23:19;11.00;99.90
14014;DHT22;49110;52.584;13.408;2022-12-29T06:24:20;11.00;99.90
14014;DHT22;49110;52.584;13.408;2022-12-29T06:25:20;11.00;99.90
14014;DHT22;49110;52.584;13.408;2022-12-29T06:26:21;11.10;99.90
14014;DHT22;49110;52.584;13.408;2022-12-29T06:27:22;11.00;99.90
14014;DHT22;49110;52.584;13.408;2022-12-29T06:28:23;11.10;99.90
14014;DHT22;49110;52.584;13.408;2022-12-29T06:29:23;11.10;99.90
14014;DHT22;49110;52.584;13.408;2022-12-29T06:30:24;11.10;99.90
14014;DHT22;49110;52.584;13.408;2022-12-29T06:31:24;11.10;99.90
14014;DHT22;49110;52.584;13.408;2022-12-29T06:32:25;11.10;99.90
14014;DHT22;49110;52.584;13.408;2022-12-29T06:33:25;11.10;99.90
14014;DHT22;49110;52.584;13.408;2022-12-29T06:34:26;11.10;99.90
14014;DHT22;49110;52.584;13.408;2022-12-29T06:35:26;11.10;99.90
14014;DHT22;49110;52.584;13.408;2022-12-29T06:36:27;11.10;99.90
14014;DHT22;49110;52.584;13.408;2022-12-29T06:37:27;11.10;99.90
14014;DHT22;49110;52.584;13.408;2022-12-29T06:38:28;11.10;99.90
14014;DHT22;49110;52.584;13.408;2022-12-29T06:39:28;11.10;99.90
14014;DHT22;49110;52.584;13.408;2022-12-29T06:40:29;11.10;99.90
14014;DHT22;49110;52.584;13.408;2022-12-29T06:41:30;11.10;99.90
14014;DHT22;49110;52.584;13.408;2022-12-29T06:42:30;11.20;99.90
14014;DHT22;49110;52.584;13.408;2022-12-29T06:43:30;11.20;99.90
14014;DHT22;49110;52.584;13.408;2022-12-29T06:44:32;11.20;99.90
14014;DHT22;49110;52.584;13.408;2022-12-29T06:45:32;11.20;99.90
14014;DHT22;49110;52.584;13.408;2022-12-29T06:46:33;11.20;99.90
14014;DHT22;49110;52.584;13.408;2022-12-29T06:47:34;11.10;99.90
14014;DHT22;49110;52.584;13.408;2022-12-29T06:48:35;11.20;99.90
14014;DHT22;49110;52.584;13.408;2022-12-29T06:49:36;11.20;99.90
14014;DHT22;49110;52.584;13.408;2022-12-29T06:50:36;11.10;99.90
14014;DHT22;49110;52.584;13.408;2022-12-29T06:51:37;11.20;99.90
14014;DHT22;49110;52.584;13.408;2022-12-29T06:52:37;11.20;99.90
14014;DHT22;49110;52.584;13.408;2022-12-29T06:53:38;11.10;99.90
14014;DHT22;49110;52.584;13.408;2022-12-29T06:54:38;11.20;99.90
14014;DHT22;49110;52.584;13.408;2022-12-29T06:55:39;11.20;99.90
14014;DHT22;49110;52.584;13.408;2022-12-29T06:56:40;11.20;99.90
14014;DHT22;49110;52.584;13.408;2022-12-29T06:57:40;11.20;99.90
14014;DHT22;49110;52.584;13.408;2022-12-29T06:58:41;11.20;99.90
14014;DHT22;49110;52.584;13.408;2022-12-29T06:59:41;11.20;99.90
14014;DHT22;49110;52.584;13.408;2022-12-29T07:00:41;11.20;99.90
14014;DHT22;49110;52.584;13.408;2022-12-29T07:01:42;11.10;99.90
14014;DHT22;49110;52.584;13.408;2022-12-29T07:02:42;11.20;99.90